Map

Track Data

SID SEASON NUMBER BASIN SUBBASIN NAME ISO_TIME NATURE LAT LON WMO_WIND WMO_PRES WMO_AGENCY TRACK_TYPE DIST2LAND LANDFALL IFLAG USA_AGENCY USA_ATCF_ID USA_LAT USA_LON USA_RECORD USA_STATUS USA_WIND USA_PRES USA_SSHS USA_R34_NE USA_R34_SE USA_R34_SW USA_R34_NW USA_R50_NE USA_R50_SE USA_R50_SW USA_R50_NW USA_R64_NE USA_R64_SE USA_R64_SW USA_R64_NW USA_POCI USA_ROCI USA_RMW USA_EYE TOKYO_LAT TOKYO_LON TOKYO_GRADE TOKYO_WIND TOKYO_PRES TOKYO_R50_DIR TOKYO_R50_LONG TOKYO_R50_SHORT TOKYO_R30_DIR TOKYO_R30_LONG TOKYO_R30_SHORT TOKYO_LAND CMA_LAT CMA_LON CMA_CAT CMA_WIND CMA_PRES HKO_LAT HKO_LON HKO_CAT HKO_WIND HKO_PRES NEWDELHI_LAT NEWDELHI_LON NEWDELHI_GRADE NEWDELHI_WIND NEWDELHI_PRES NEWDELHI_CI NEWDELHI_DP NEWDELHI_POCI REUNION_LAT REUNION_LON REUNION_TYPE REUNION_WIND REUNION_PRES REUNION_TNUM REUNION_CI REUNION_RMW REUNION_R34_NE REUNION_R34_SE REUNION_R34_SW REUNION_R34_NW REUNION_R50_NE REUNION_R50_SE REUNION_R50_SW REUNION_R50_NW REUNION_R64_NE REUNION_R64_SE REUNION_R64_SW REUNION_R64_NW BOM_LAT BOM_LON BOM_TYPE BOM_WIND BOM_PRES BOM_TNUM BOM_CI BOM_RMW BOM_R34_NE BOM_R34_SE BOM_R34_SW BOM_R34_NW BOM_R50_NE BOM_R50_SE BOM_R50_SW BOM_R50_NW BOM_R64_NE BOM_R64_SE BOM_R64_SW BOM_R64_NW BOM_ROCI BOM_POCI BOM_EYE BOM_POS_METHOD BOM_PRES_METHOD NADI_LAT NADI_LON NADI_CAT NADI_WIND NADI_PRES WELLINGTON_LAT WELLINGTON_LON WELLINGTON_WIND WELLINGTON_PRES DS824_LAT DS824_LON DS824_STAGE DS824_WIND DS824_PRES TD9636_LAT TD9636_LON TD9636_STAGE TD9636_WIND TD9636_PRES TD9635_LAT TD9635_LON TD9635_WIND TD9635_PRES TD9635_ROCI NEUMANN_LAT NEUMANN_LON NEUMANN_CLASS NEUMANN_WIND NEUMANN_PRES MLC_LAT MLC_LON MLC_CLASS MLC_WIND MLC_PRES USA_GUST BOM_GUST BOM_GUST_PER REUNION_GUST REUNION_GUST_PER USA_SEAHGT USA_SEARAD_NE USA_SEARAD_SE USA_SEARAD_SW USA_SEARAD_NW STORM_SPEED STORM_DIR
1928329N10150 1928 67 WP MM NOT_NAMED 1928-11-24 10:00:00 NR 10.1000 150.000 main 1397 1397 __________O___ -1 10.1000 150.000 2 23 312
1928329N10150 1928 67 WP MM NOT_NAMED 1928-11-24 12:00:00 NR 10.6140 149.414 main 1440 1449 __________P___ -1 10.6140 149.414 2 23 311
1928329N10150 1928 67 WP MM NOT_NAMED 1928-11-24 15:00:00 NR 11.3540 148.553 main 1518 1517 __________P___ -1 11.3540 148.553 2 22 311
1928329N10150 1928 67 WP MM NOT_NAMED 1928-11-24 18:00:00 NR 12.0161 147.742 main 1580 1591 __________P___ -1 12.0161 147.742 2 19 309
1928329N10150 1928 67 WP MM NOT_NAMED 1928-11-24 21:00:00 NR 12.5553 147.017 main 1646 1646 __________P___ -1 12.5553 147.017 2 17 307
1928329N10150 1928 67 WP MM NOT_NAMED 1928-11-24 22:00:00 NR 12.7000 146.800 main 1658 1658 __________O___ -1 12.7000 146.800 2 14 302
1928329N10150 1928 67 WP MM NOT_NAMED 1928-11-25 00:00:00 NR 12.9324 146.408 main 1680 1680 __________P___ -1 12.9324 146.408 2 12 298
1928329N10150 1928 67 WP MM NOT_NAMED 1928-11-25 03:00:00 NR 13.1683 145.902 main 1715 1715 __________P___ -1 13.1683 145.902 2 10 293
1928329N10150 1928 67 WP MM NOT_NAMED 1928-11-25 06:00:00 NR 13.3217 145.461 main 1729 1730 __________P___ -1 13.3217 145.461 2 9 289
1928329N10150 1928 67 WP MM NOT_NAMED 1928-11-25 09:00:00 NR 13.4517 145.042 main 1756 1756 __________P___ -1 13.4517 145.042 2 9 288
1928329N10150 1928 67 WP MM NOT_NAMED 1928-11-25 10:00:00 NR 13.5000 144.900 main 1757 1757 __________O___ -1 13.5000 144.900 2 10 293
1928329N10150 1928 67 WP MM NOT_NAMED 1928-11-25 12:00:00 NR 13.6442 144.573 main 1772 1785 __________P___ -1 13.6442 144.573 2 11 295
1928329N10150 1928 67 WP MM NOT_NAMED 1928-11-25 15:00:00 NR 13.8670 144.082 main 1813 1813 __________P___ -1 13.8670 144.082 2 10 296
1928329N10150 1928 67 WP MM NOT_NAMED 1928-11-25 18:00:00 NR 14.0945 143.602 main 1844 1844 __________P___ -1 14.0945 143.602 2 10 297
1928329N10150 1928 67 WP MM NOT_NAMED 1928-11-25 21:00:00 NR 14.3238 143.145 main 1861 1861 __________P___ -1 14.3238 143.145 2 10 298
1928329N10150 1928 67 WP MM NOT_NAMED 1928-11-25 22:00:00 NR 14.4000 143.000 main 1868 1865 __________O___ -1 14.4000 143.000 2 9 300
1928329N10150 1928 67 WP MM NOT_NAMED 1928-11-26 00:00:00 NR 14.5496 142.735 main 1870 1847 __________P___ -1 14.5496 142.735 2 9 301
1928329N10150 1928 67 WP MM NOT_NAMED 1928-11-26 03:00:00 NR 14.7742 142.362 main 1849 1811 __________P___ -1 14.7742 142.362 2 8 302
1928329N10150 1928 67 WP MM NOT_NAMED 1928-11-26 06:00:00 NR 14.9993 142.001 main 1811 1771 __________P___ -1 14.9993 142.001 2 8 302
1928329N10150 1928 67 WP MM NOT_NAMED 1928-11-26 09:00:00 NR 15.2248 141.630 main 1771 1763 __________P___ -1 15.2248 141.630 2 9 302
1928329N10150 1928 67 WP MM NOT_NAMED 1928-11-26 10:00:00 NR 15.3000 141.500 main 1763 1733 __________O___ -1 15.3000 141.500 2 10 299
1928329N10150 1928 67 WP MM NOT_NAMED 1928-11-26 12:00:00 NR 15.4555 141.194 main 1735 1686 __________P___ -1 15.4555 141.194 2 10 297
1928329N10150 1928 67 WP MM NOT_NAMED 1928-11-26 15:00:00 NR 15.6888 140.715 main 1686 1639 __________P___ -1 15.6888 140.715 2 10 297
1928329N10150 1928 67 WP MM NOT_NAMED 1928-11-26 18:00:00 NR 15.9163 140.246 main 1639 1602 __________P___ -1 15.9163 140.246 2 10 297
1928329N10150 1928 67 WP MM NOT_NAMED 1928-11-26 21:00:00 NR 16.1319 139.824 main 1602 1595 __________P___ -1 16.1319 139.824 2 9 298
1928329N10150 1928 67 WP MM NOT_NAMED 1928-11-26 22:00:00 NR 16.2000 139.700 main 1595 1577 __________O___ -1 16.2000 139.700 2 7 302
1928329N10150 1928 67 WP MM NOT_NAMED 1928-11-27 00:00:00 NR 16.3250 139.503 main 1577 1559 __________P___ -1 16.3250 139.503 2 6 306
1928329N10150 1928 67 WP MM NOT_NAMED 1928-11-27 03:00:00 NR 16.5002 139.266 main 1562 1545 __________P___ -1 16.5002 139.266 2 5 309
1928329N10150 1928 67 WP MM NOT_NAMED 1928-11-27 06:00:00 NR 16.6690 139.066 main 1548 1531 __________P___ -1 16.6690 139.066 2 5 312
1928329N10150 1928 67 WP MM NOT_NAMED 1928-11-27 09:00:00 NR 16.8406 138.870 main 1531 1525 __________P___ -1 16.8406 138.870 2 5 312
1928329N10150 1928 67 WP MM NOT_NAMED 1928-11-27 10:00:00 NR 16.9000 138.800 main 1525 1508 __________O___ -1 16.9000 138.800 2 6 308
1928329N10150 1928 67 WP MM NOT_NAMED 1928-11-27 12:00:00 NR 17.0224 138.628 main 1508 1492 __________P___ -1 17.0224 138.628 2 6 306
1928329N10150 1928 67 WP MM NOT_NAMED 1928-11-27 15:00:00 NR 17.2121 138.357 main 1496 1474 __________P___ -1 17.2121 138.357 2 7 307
1928329N10150 1928 67 WP MM NOT_NAMED 1928-11-27 18:00:00 NR 17.4121 138.077 main 1474 1453 __________P___ -1 17.4121 138.077 2 7 308
1928329N10150 1928 67 WP MM NOT_NAMED 1928-11-27 21:00:00 NR 17.6254 137.794 main 1453 1447 __________P___ -1 17.6254 137.794 2 7 309
1928329N10150 1928 67 WP MM NOT_NAMED 1928-11-27 22:00:00 NR 17.7000 137.700 main 1447 1433 __________O___ -1 17.7000 137.700 2 7 310
1928329N10150 1928 67 WP MM NOT_NAMED 1928-11-28 00:00:00 NR 17.8420 137.519 main 1433 1418 __________P___ -1 17.8420 137.519 2 7 311
1928329N10150 1928 67 WP MM NOT_NAMED 1928-11-28 03:00:00 NR 18.0675 137.248 main 1418 1409 __________P___ -1 18.0675 137.248 2 7 312
1928329N10150 1928 67 WP MM NOT_NAMED 1928-11-28 06:00:00 NR 18.3161 136.974 main 1409 1392 __________P___ -1 18.3161 136.974 2 7 315
1928329N10150 1928 67 WP MM NOT_NAMED 1928-11-28 09:00:00 NR 18.5974 136.695 main 1397 1388 __________P___ -1 18.5974 136.695 2 8 317
1928329N10150 1928 67 WP MM NOT_NAMED 1928-11-28 10:00:00 NR 18.7000 136.600 main 1394 1381 __________O___ -1 18.7000 136.600 2 8 316
1928329N10150 1928 67 WP MM NOT_NAMED 1928-11-28 12:00:00 NR 18.8980 136.390 main 1387 1372 __________P___ -1 18.8980 136.390 2 9 316
1928329N10150 1928 67 WP MM NOT_NAMED 1928-11-28 15:00:00 NR 19.2259 136.068 main 1378 1365 __________P___ -1 19.2259 136.068 2 9 320
1928329N10150 1928 67 WP MM NOT_NAMED 1928-11-28 18:00:00 NR 19.6020 135.758 main 1370 1319 __________P___ -1 19.6020 135.758 2 10 326
1928329N10150 1928 67 WP MM NOT_NAMED 1928-11-28 21:00:00 NR 20.0388 135.481 main 1319 1294 __________P___ -1 20.0388 135.481 2 10 331
1928329N10150 1928 67 WP MM NOT_NAMED 1928-11-28 22:00:00 NR 20.2000 135.400 main 1294 1256 __________O___ -1 20.2000 135.400 2 11 335
1928329N10150 1928 67 WP MM NOT_NAMED 1928-11-29 00:00:00 NR 20.5485 135.232 main 1256 1185 __________P___ -1 20.5485 135.232 2 12 339
1928329N10150 1928 67 WP MM NOT_NAMED 1928-11-29 03:00:00 NR 21.1281 135.018 main 1185 1109 __________P___ -1 21.1281 135.018 2 13 344
1928329N10150 1928 67 WP MM NOT_NAMED 1928-11-29 06:00:00 NR 21.7509 134.866 main 1109 1042 __________P___ -1 21.7509 134.866 2 13 351
1928329N10150 1928 67 WP MM NOT_NAMED 1928-11-29 09:00:00 NR 22.3889 134.800 main 1042 1022 __________P___ -1 22.3889 134.800 2 13 356
1928329N10150 1928 67 WP MM NOT_NAMED 1928-11-29 10:00:00 NR 22.6000 134.800 main 1022 976 __________O___ -1 22.6000 134.800 2 12 356
1928329N10150 1928 67 WP MM NOT_NAMED 1928-11-29 12:00:00 NR 22.9902 134.748 main 976 919 __________P___ -1 22.9902 134.748 2 12 358
1928329N10150 1928 67 WP MM NOT_NAMED 1928-11-29 15:00:00 NR 23.5755 134.750 main 919 864 __________P___ -1 23.5755 134.750 2 12 7
1928329N10150 1928 67 WP MM NOT_NAMED 1928-11-29 18:00:00 NR 24.1709 134.912 main 864 826 __________P___ -1 24.1709 134.912 2 13 23
1928329N10150 1928 67 WP MM NOT_NAMED 1928-11-29 21:00:00 NR 24.7878 135.305 main 826 818 __________P___ -1 24.7878 135.305 2 15 33
1928329N10150 1928 67 WP MM NOT_NAMED 1928-11-29 22:00:00 NR 25.0000 135.500 main 818 797 __________O___ -1 25.0000 135.500 2 18 43
1928329N10150 1928 67 WP MM NOT_NAMED 1928-11-30 00:00:00 NR 25.4557 136.003 main 797 792 __________P___ -1 25.4557 136.003 2 21 49
1928329N10150 1928 67 WP MM NOT_NAMED 1928-11-30 03:00:00 NR 26.1575 136.993 main 795 766 __________P___ -1 26.1575 136.993 2 24 55
1928329N10150 1928 67 WP MM NOT_NAMED 1928-11-30 06:00:00 NR 26.8497 138.181 main 771 742 __________P___ -1 26.8497 138.181 2 26 59
1928329N10150 1928 67 WP MM NOT_NAMED 1928-11-30 09:00:00 NR 27.4986 139.467 main 747 741 __________P___ -1 27.4986 139.467 2 26 61
1928329N10150 1928 67 WP MM NOT_NAMED 1928-11-30 10:00:00 NR 27.7000 139.900 main 746 742 __________O___ -1 27.7000 139.900 2 26 63
1928329N10150 1928 67 WP MM NOT_NAMED 1928-11-30 12:00:00 NR 28.0766 140.755 main 749 727 __________P___ -1 28.0766 140.755 2 25 65
1928329N10150 1928 67 WP MM NOT_NAMED 1928-11-30 15:00:00 NR 28.5848 142.015 main 730 719 __________P___ -1 28.5848 142.015 2 24 66
1928329N10150 1928 67 WP MM NOT_NAMED 1928-11-30 18:00:00 NR 29.0414 143.255 main 731 721 __________P___ -1 29.0414 143.255 2 23 68
1928329N10150 1928 67 WP MM NOT_NAMED 1928-11-30 21:00:00 NR 29.4638 144.488 main 741 746 __________P___ -1 29.4638 144.488 2 23 69
1928329N10150 1928 67 WP MM NOT_NAMED 1928-11-30 22:00:00 NR 29.6000 144.900 main 753 __________O___ -1 29.6000 144.900 2 23 69

Digital Typhoon Data and Search

About IBTrACS Database

This database is a web-friendly format of International Best Track Archive for Climate Stewardship (IBTrACS), a global best track data archive curated by NOAA dating back to 1842.

Updated: 2021-11-26